sensor_id;sensor_type;location;lat;lon;timestamp;noise_LAeq;noise_LA_min;noise_LA_max;noise_LA01;noise_LA95
43168;Laerm;28773;48.804;9.024;2024-01-11T00:00:00;41.77;40.56;43.03;;
43168;Laerm;28773;48.804;9.024;2024-01-11T00:02:26;40.73;39.47;43.92;;
43168;Laerm;28773;48.804;9.024;2024-01-11T00:04:51;40.10;39.22;42.03;;
43168;Laerm;28773;48.804;9.024;2024-01-11T00:07:16;40.06;39.07;41.88;;
43168;Laerm;28773;48.804;9.024;2024-01-11T00:09:42;40.57;39.60;42.31;;
43168;Laerm;28773;48.804;9.024;2024-01-11T00:12:07;41.08;39.71;42.32;;
43168;Laerm;28773;48.804;9.024;2024-01-11T00:14:32;42.04;40.87;42.99;;
43168;Laerm;28773;48.804;9.024;2024-01-11T00:16:58;42.26;41.28;43.14;;
43168;Laerm;28773;48.804;9.024;2024-01-11T00:19:23;41.59;40.52;42.79;;
43168;Laerm;28773;48.804;9.024;2024-01-11T00:21:48;40.79;39.15;42.66;;
43168;Laerm;28773;48.804;9.024;2024-01-11T00:24:13;38.62;36.70;40.28;;
43168;Laerm;28773;48.804;9.024;2024-01-11T00:26:38;37.44;36.09;38.64;;
43168;Laerm;28773;48.804;9.024;2024-01-11T00:29:04;36.31;34.97;37.59;;
43168;Laerm;28773;48.804;9.024;2024-01-11T00:31:29;36.18;35.02;37.18;;
43168;Laerm;28773;48.804;9.024;2024-01-11T00:33:54;35.95;34.86;40.18;;
43168;Laerm;28773;48.804;9.024;2024-01-11T00:36:19;35.78;34.51;36.88;;
43168;Laerm;28773;48.804;9.024;2024-01-11T00:38:45;36.05;34.75;37.27;;
43168;Laerm;28773;48.804;9.024;2024-01-11T00:41:10;37.59;35.44;40.19;;
43168;Laerm;28773;48.804;9.024;2024-01-11T00:43:36;38.94;37.64;40.59;;
43168;Laerm;28773;48.804;9.024;2024-01-11T00:46:01;40.33;38.84;42.15;;
43168;Laerm;28773;48.804;9.024;2024-01-11T00:48:26;40.74;39.86;41.58;;
43168;Laerm;28773;48.804;9.024;2024-01-11T00:50:51;40.59;39.68;41.46;;
43168;Laerm;28773;48.804;9.024;2024-01-11T00:53:16;40.72;39.91;41.65;;
43168;Laerm;28773;48.804;9.024;2024-01-11T00:55:42;40.93;40.09;41.72;;
43168;Laerm;28773;48.804;9.024;2024-01-11T00:58:08;41.05;40.13;41.99;;
43168;Laerm;28773;48.804;9.024;2024-01-11T01:00:33;40.86;39.91;42.47;;
43168;Laerm;28773;48.804;9.024;2024-01-11T01:02:58;40.35;39.30;41.34;;
43168;Laerm;28773;48.804;9.024;2024-01-11T01:05:23;39.58;37.96;40.97;;
43168;Laerm;28773;48.804;9.024;2024-01-11T01:07:48;38.18;36.46;39.52;;
43168;Laerm;28773;48.804;9.024;2024-01-11T01:10:14;36.75;35.67;37.82;;
43168;Laerm;28773;48.804;9.024;2024-01-11T01:12:39;36.51;35.23;37.87;;
43168;Laerm;28773;48.804;9.024;2024-01-11T01:15:04;35.75;34.59;37.07;;
43168;Laerm;28773;48.804;9.024;2024-01-11T01:17:29;35.59;34.53;38.13;;
43168;Laerm;28773;48.804;9.024;2024-01-11T01:19:54;36.35;34.68;37.64;;
43168;Laerm;28773;48.804;9.024;2024-01-11T01:22:20;37.74;36.40;41.29;;
43168;Laerm;28773;48.804;9.024;2024-01-11T01:24:45;38.94;37.62;41.23;;
43168;Laerm;28773;48.804;9.024;2024-01-11T01:27:10;39.35;38.23;40.60;;
43168;Laerm;28773;48.804;9.024;2024-01-11T01:29:35;40.01;39.04;41.02;;
43168;Laerm;28773;48.804;9.024;2024-01-11T01:32:00;40.55;39.65;41.45;;
43168;Laerm;28773;48.804;9.024;2024-01-11T01:34:25;40.36;39.37;41.33;;
43168;Laerm;28773;48.804;9.024;2024-01-11T01:36:51;40.30;39.39;41.25;;
43168;Laerm;28773;48.804;9.024;2024-01-11T01:39:16;39.70;38.38;41.17;;
43168;Laerm;28773;48.804;9.024;2024-01-11T01:41:41;39.34;38.44;40.19;;
43168;Laerm;28773;48.804;9.024;2024-01-11T01:44:06;38.80;37.55;40.39;;
43168;Laerm;28773;48.804;9.024;2024-01-11T01:46:32;37.64;35.54;39.19;;
43168;Laerm;28773;48.804;9.024;2024-01-11T01:48:59;36.00;34.65;37.14;;
43168;Laerm;28773;48.804;9.024;2024-01-11T01:51:24;36.05;34.69;37.35;;
43168;Laerm;28773;48.804;9.024;2024-01-11T01:53:52;35.37;34.31;36.39;;
43168;Laerm;28773;48.804;9.024;2024-01-11T01:56:18;35.84;34.49;36.94;;
43168;Laerm;28773;48.804;9.024;2024-01-11T01:58:44;37.42;35.70;38.54;;
43168;Laerm;28773;48.804;9.024;2024-01-11T02:01:09;38.13;36.92;39.27;;
43168;Laerm;28773;48.804;9.024;2024-01-11T02:03:35;38.50;37.55;39.38;;
43168;Laerm;28773;48.804;9.024;2024-01-11T02:06:00;38.58;37.45;43.92;;
43168;Laerm;28773;48.804;9.024;2024-01-11T02:08:26;38.11;37.16;38.96;;
43168;Laerm;28773;48.804;9.024;2024-01-11T02:10:52;37.98;36.56;39.02;;
43168;Laerm;28773;48.804;9.024;2024-01-11T02:13:17;37.41;36.26;38.36;;
43168;Laerm;28773;48.804;9.024;2024-01-11T02:15:44;37.12;36.03;39.13;;
43168;Laerm;28773;48.804;9.024;2024-01-11T02:18:09;36.27;35.10;37.49;;
43168;Laerm;28773;48.804;9.024;2024-01-11T02:20:35;36.54;35.38;37.43;;
43168;Laerm;28773;48.804;9.024;2024-01-11T02:23:07;36.18;34.50;37.43;;
43168;Laerm;28773;48.804;9.024;2024-01-11T02:25:33;35.80;34.57;40.71;;
43168;Laerm;28773;48.804;9.024;2024-01-11T02:27:58;35.84;34.71;36.87;;
43168;Laerm;28773;48.804;9.024;2024-01-11T02:30:24;35.41;34.02;36.39;;
43168;Laerm;28773;48.804;9.024;2024-01-11T02:32:49;34.90;33.74;36.00;;
43168;Laerm;28773;48.804;9.024;2024-01-11T02:35:15;34.74;33.19;38.73;;
43168;Laerm;28773;48.804;9.024;2024-01-11T02:37:41;34.43;33.24;35.64;;
43168;Laerm;28773;48.804;9.024;2024-01-11T02:40:07;34.96;33.67;36.17;;
43168;Laerm;28773;48.804;9.024;2024-01-11T02:42:32;34.96;33.74;36.03;;
43168;Laerm;28773;48.804;9.024;2024-01-11T02:44:58;35.49;34.12;36.65;;
43168;Laerm;28773;48.804;9.024;2024-01-11T02:47:23;35.53;34.23;36.58;;
43168;Laerm;28773;48.804;9.024;2024-01-11T02:49:48;35.35;34.26;36.34;;
43168;Laerm;28773;48.804;9.024;2024-01-11T02:52:13;35.38;34.19;36.26;;
43168;Laerm;28773;48.804;9.024;2024-01-11T02:54:38;35.44;34.03;36.46;;
43168;Laerm;28773;48.804;9.024;2024-01-11T02:57:04;35.43;34.30;38.01;;
43168;Laerm;28773;48.804;9.024;2024-01-11T02:59:29;35.71;34.67;36.63;;
43168;Laerm;28773;48.804;9.024;2024-01-11T03:01:54;35.47;34.36;36.61;;
43168;Laerm;28773;48.804;9.024;2024-01-11T03:04:19;35.67;34.26;37.10;;
43168;Laerm;28773;48.804;9.024;2024-01-11T03:06:45;36.02;35.03;37.32;;
43168;Laerm;28773;48.804;9.024;2024-01-11T03:09:10;36.22;35.02;37.49;;
43168;Laerm;28773;48.804;9.024;2024-01-11T03:11:35;36.42;35.22;37.49;;
43168;Laerm;28773;48.804;9.024;2024-01-11T03:14:02;36.37;35.11;39.54;;
43168;Laerm;28773;48.804;9.024;2024-01-11T03:16:27;36.59;35.49;37.68;;
43168;Laerm;28773;48.804;9.024;2024-01-11T03:18:53;37.27;36.10;39.27;;
43168;Laerm;28773;48.804;9.024;2024-01-11T03:21:18;37.49;36.54;38.34;;
43168;Laerm;28773;48.804;9.024;2024-01-11T03:23:43;37.61;36.37;40.34;;
43168;Laerm;28773;48.804;9.024;2024-01-11T03:26:12;37.71;36.41;42.20;;
43168;Laerm;28773;48.804;9.024;2024-01-11T03:28:38;37.52;36.39;38.42;;
43168;Laerm;28773;48.804;9.024;2024-01-11T03:31:03;37.22;35.94;38.40;;
43168;Laerm;28773;48.804;9.024;2024-01-11T03:33:28;36.65;35.53;39.73;;
43168;Laerm;28773;48.804;9.024;2024-01-11T03:35:53;35.94;34.79;37.06;;
43168;Laerm;28773;48.804;9.024;2024-01-11T03:38:19;36.28;34.83;43.12;;
43168;Laerm;28773;48.804;9.024;2024-01-11T03:40:44;36.41;34.97;37.59;;
43168;Laerm;28773;48.804;9.024;2024-01-11T03:43:09;35.88;34.80;36.97;;
43168;Laerm;28773;48.804;9.024;2024-01-11T03:45:34;36.64;35.17;41.18;;
43168;Laerm;28773;48.804;9.024;2024-01-11T03:47:59;36.94;35.64;41.47;;
43168;Laerm;28773;48.804;9.024;2024-01-11T03:50:25;37.06;35.74;40.92;;
43168;Laerm;28773;48.804;9.024;2024-01-11T03:52:50;36.42;35.28;37.85;;
43168;Laerm;28773;48.804;9.024;2024-01-11T03:55:15;35.95;34.48;39.36;;
43168;Laerm;28773;48.804;9.024;2024-01-11T03:57:40;35.14;33.87;36.55;;
43168;Laerm;28773;48.804;9.024;2024-01-11T04:00:06;34.81;33.09;41.01;;
43168;Laerm;28773;48.804;9.024;2024-01-11T04:02:31;34.23;33.11;35.38;;
43168;Laerm;28773;48.804;9.024;2024-01-11T04:04:56;34.36;32.94;38.66;;
43168;Laerm;28773;48.804;9.024;2024-01-11T04:07:21;35.15;33.60;41.33;;
43168;Laerm;28773;48.804;9.024;2024-01-11T04:09:47;35.84;34.50;39.84;;
43168;Laerm;28773;48.804;9.024;2024-01-11T04:12:12;36.37;35.19;37.56;;
43168;Laerm;28773;48.804;9.024;2024-01-11T04:14:38;37.10;35.89;40.32;;
43168;Laerm;28773;48.804;9.024;2024-01-11T04:17:03;37.38;36.33;41.62;;
43168;Laerm;28773;48.804;9.024;2024-01-11T04:19:29;37.29;36.31;40.66;;
43168;Laerm;28773;48.804;9.024;2024-01-11T04:21:54;37.31;36.18;39.95;;
43168;Laerm;28773;48.804;9.024;2024-01-11T04:24:19;37.68;36.40;42.80;;
43168;Laerm;28773;48.804;9.024;2024-01-11T04:26:44;37.79;36.71;41.89;;
43168;Laerm;28773;48.804;9.024;2024-01-11T04:29:09;37.31;35.96;39.84;;
43168;Laerm;28773;48.804;9.024;2024-01-11T04:31:35;37.29;36.08;42.03;;
43168;Laerm;28773;48.804;9.024;2024-01-11T04:34:00;37.38;36.20;41.24;;
43168;Laerm;28773;48.804;9.024;2024-01-11T04:36:25;37.00;35.63;40.69;;
43168;Laerm;28773;48.804;9.024;2024-01-11T04:38:50;37.44;36.24;43.70;;
43168;Laerm;28773;48.804;9.024;2024-01-11T04:41:15;37.43;35.99;41.28;;
43168;Laerm;28773;48.804;9.024;2024-01-11T04:43:41;37.14;35.97;40.71;;
43168;Laerm;28773;48.804;9.024;2024-01-11T04:46:20;37.04;35.74;41.90;;
43168;Laerm;28773;48.804;9.024;2024-01-11T04:48:45;36.92;35.52;43.25;;
43168;Laerm;28773;48.804;9.024;2024-01-11T04:51:14;36.76;35.27;41.61;;
43168;Laerm;28773;48.804;9.024;2024-01-11T04:53:40;36.30;34.80;42.16;;
43168;Laerm;28773;48.804;9.024;2024-01-11T04:56:06;36.20;34.74;41.55;;
43168;Laerm;28773;48.804;9.024;2024-01-11T04:58:32;36.20;34.73;41.05;;
43168;Laerm;28773;48.804;9.024;2024-01-11T05:00:57;36.28;34.98;42.60;;
43168;Laerm;28773;48.804;9.024;2024-01-11T05:03:22;36.09;34.24;42.69;;
43168;Laerm;28773;48.804;9.024;2024-01-11T05:05:48;35.64;34.14;41.74;;
43168;Laerm;28773;48.804;9.024;2024-01-11T05:08:13;36.04;34.10;44.25;;
43168;Laerm;28773;48.804;9.024;2024-01-11T05:10:38;36.03;34.44;40.34;;
43168;Laerm;28773;48.804;9.024;2024-01-11T05:13:03;36.70;34.99;42.48;;
43168;Laerm;28773;48.804;9.024;2024-01-11T05:15:28;37.52;36.04;40.76;;
43168;Laerm;28773;48.804;9.024;2024-01-11T05:17:55;38.51;37.03;42.47;;
43168;Laerm;28773;48.804;9.024;2024-01-11T05:20:20;39.53;38.10;42.85;;
43168;Laerm;28773;48.804;9.024;2024-01-11T05:22:45;39.67;38.60;42.05;;
43168;Laerm;28773;48.804;9.024;2024-01-11T05:25:11;39.90;38.63;43.66;;
43168;Laerm;28773;48.804;9.024;2024-01-11T05:27:36;39.98;38.65;42.90;;
43168;Laerm;28773;48.804;9.024;2024-01-11T05:30:01;40.12;39.00;43.38;;
43168;Laerm;28773;48.804;9.024;2024-01-11T05:32:26;40.57;39.53;43.75;;
43168;Laerm;28773;48.804;9.024;2024-01-11T05:34:52;40.33;39.15;43.31;;
43168;Laerm;28773;48.804;9.024;2024-01-11T05:37:17;39.78;38.31;43.29;;
43168;Laerm;28773;48.804;9.024;2024-01-11T05:39:42;39.31;37.98;42.35;;
43168;Laerm;28773;48.804;9.024;2024-01-11T05:42:07;39.09;37.48;44.48;;
43168;Laerm;28773;48.804;9.024;2024-01-11T05:44:33;38.09;36.53;42.33;;
43168;Laerm;28773;48.804;9.024;2024-01-11T05:46:58;37.68;35.84;42.18;;
43168;Laerm;28773;48.804;9.024;2024-01-11T05:49:23;37.69;35.91;41.72;;
43168;Laerm;28773;48.804;9.024;2024-01-11T05:51:48;37.77;35.96;41.90;;
43168;Laerm;28773;48.804;9.024;2024-01-11T05:54:13;37.11;35.31;42.55;;
43168;Laerm;28773;48.804;9.024;2024-01-11T05:56:39;36.62;34.39;41.73;;
43168;Laerm;28773;48.804;9.024;2024-01-11T05:59:04;36.49;34.16;42.61;;
43168;Laerm;28773;48.804;9.024;2024-01-11T06:01:29;36.54;34.08;41.95;;
43168;Laerm;28773;48.804;9.024;2024-01-11T06:03:54;36.77;33.89;44.16;;
43168;Laerm;28773;48.804;9.024;2024-01-11T06:06:20;36.13;33.95;40.62;;
43168;Laerm;28773;48.804;9.024;2024-01-11T06:08:45;36.41;33.74;43.83;;
43168;Laerm;28773;48.804;9.024;2024-01-11T06:11:10;36.21;33.63;41.71;;
43168;Laerm;28773;48.804;9.024;2024-01-11T06:13:35;35.77;33.68;41.78;;
43168;Laerm;28773;48.804;9.024;2024-01-11T06:16:00;36.51;33.85;42.57;;
43168;Laerm;28773;48.804;9.024;2024-01-11T06:18:26;37.28;34.16;42.59;;
43168;Laerm;28773;48.804;9.024;2024-01-11T06:20:51;37.35;33.96;42.50;;
43168;Laerm;28773;48.804;9.024;2024-01-11T06:23:16;36.34;33.63;41.33;;
43168;Laerm;28773;48.804;9.024;2024-01-11T06:25:41;36.94;33.80;41.73;;
43168;Laerm;28773;48.804;9.024;2024-01-11T06:28:07;37.04;34.47;41.28;;
43168;Laerm;28773;48.804;9.024;2024-01-11T06:30:33;36.06;33.42;43.48;;
43168;Laerm;28773;48.804;9.024;2024-01-11T06:32:58;36.28;33.30;45.62;;
43168;Laerm;28773;48.804;9.024;2024-01-11T06:35:23;36.52;32.93;41.65;;
43168;Laerm;28773;48.804;9.024;2024-01-11T06:37:48;36.48;33.49;43.68;;
43168;Laerm;28773;48.804;9.024;2024-01-11T06:40:14;37.50;34.62;43.07;;
43168;Laerm;28773;48.804;9.024;2024-01-11T06:42:39;37.36;35.08;45.59;;
43168;Laerm;28773;48.804;9.024;2024-01-11T06:45:05;37.30;34.50;42.29;;
43168;Laerm;28773;48.804;9.024;2024-01-11T06:47:30;37.16;34.02;43.35;;
43168;Laerm;28773;48.804;9.024;2024-01-11T06:49:55;36.63;33.88;41.64;;
43168;Laerm;28773;48.804;9.024;2024-01-11T06:52:20;37.09;33.86;42.22;;
43168;Laerm;28773;48.804;9.024;2024-01-11T06:54:45;37.46;34.79;44.63;;
43168;Laerm;28773;48.804;9.024;2024-01-11T06:57:11;36.98;34.59;41.51;;
43168;Laerm;28773;48.804;9.024;2024-01-11T06:59:36;36.64;34.14;42.65;;
43168;Laerm;28773;48.804;9.024;2024-01-11T07:02:02;37.24;34.15;41.79;;
43168;Laerm;28773;48.804;9.024;2024-01-11T07:04:27;36.96;34.50;47.36;;
43168;Laerm;28773;48.804;9.024;2024-01-11T07:06:53;37.30;34.61;43.35;;
43168;Laerm;28773;48.804;9.024;2024-01-11T07:09:18;36.70;34.72;42.39;;
43168;Laerm;28773;48.804;9.024;2024-01-11T07:11:43;37.39;35.16;43.62;;
43168;Laerm;28773;48.804;9.024;2024-01-11T07:14:09;37.63;35.17;42.45;;
43168;Laerm;28773;48.804;9.024;2024-01-11T07:16:34;38.09;35.73;42.49;;
43168;Laerm;28773;48.804;9.024;2024-01-11T07:19:00;39.02;36.84;42.53;;
43168;Laerm;28773;48.804;9.024;2024-01-11T07:21:26;38.48;36.42;43.27;;
43168;Laerm;28773;48.804;9.024;2024-01-11T07:24:00;38.16;36.36;43.71;;
43168;Laerm;28773;48.804;9.024;2024-01-11T07:26:26;38.33;36.52;42.14;;
43168;Laerm;28773;48.804;9.024;2024-01-11T07:28:51;38.62;36.87;42.77;;
43168;Laerm;28773;48.804;9.024;2024-01-11T07:31:17;39.66;38.05;42.63;;
43168;Laerm;28773;48.804;9.024;2024-01-11T07:33:42;40.28;38.91;43.69;;
43168;Laerm;28773;48.804;9.024;2024-01-11T07:36:07;39.77;37.82;43.55;;
43168;Laerm;28773;48.804;9.024;2024-01-11T07:38:34;39.51;37.75;44.29;;
43168;Laerm;28773;48.804;9.024;2024-01-11T07:40:59;39.02;37.20;42.22;;
43168;Laerm;28773;48.804;9.024;2024-01-11T07:43:24;38.29;36.29;42.89;;
43168;Laerm;28773;48.804;9.024;2024-01-11T07:45:51;37.83;35.73;42.78;;
43168;Laerm;28773;48.804;9.024;2024-01-11T07:48:16;37.90;35.77;42.56;;
43168;Laerm;28773;48.804;9.024;2024-01-11T07:50:41;38.33;36.08;42.94;;
43168;Laerm;28773;48.804;9.024;2024-01-11T07:53:07;39.32;37.35;43.03;;
43168;Laerm;28773;48.804;9.024;2024-01-11T07:55:32;40.12;38.59;45.63;;
43168;Laerm;28773;48.804;9.024;2024-01-11T07:57:57;40.84;39.35;43.47;;
43168;Laerm;28773;48.804;9.024;2024-01-11T08:00:22;40.68;38.95;43.24;;
43168;Laerm;28773;48.804;9.024;2024-01-11T08:02:48;39.31;37.79;42.89;;
43168;Laerm;28773;48.804;9.024;2024-01-11T08:05:13;38.72;36.71;43.08;;
43168;Laerm;28773;48.804;9.024;2024-01-11T08:07:39;38.13;36.39;42.75;;
43168;Laerm;28773;48.804;9.024;2024-01-11T08:10:04;38.66;36.65;43.91;;
43168;Laerm;28773;48.804;9.024;2024-01-11T08:12:29;38.42;37.12;42.04;;
43168;Laerm;28773;48.804;9.024;2024-01-11T08:14:55;38.59;37.07;42.41;;
43168;Laerm;28773;48.804;9.024;2024-01-11T08:17:21;38.79;37.35;45.12;;
43168;Laerm;28773;48.804;9.024;2024-01-11T08:19:46;38.26;36.83;41.83;;
43168;Laerm;28773;48.804;9.024;2024-01-11T08:22:11;39.17;37.46;43.40;;
43168;Laerm;28773;48.804;9.024;2024-01-11T08:24:36;38.90;37.74;42.77;;
43168;Laerm;28773;48.804;9.024;2024-01-11T08:27:02;39.58;38.01;44.66;;
43168;Laerm;28773;48.804;9.024;2024-01-11T08:29:27;39.03;37.64;42.42;;
43168;Laerm;28773;48.804;9.024;2024-01-11T08:31:53;38.86;37.09;42.79;;
43168;Laerm;28773;48.804;9.024;2024-01-11T08:34:19;38.19;36.43;42.93;;
43168;Laerm;28773;48.804;9.024;2024-01-11T08:36:44;38.29;36.62;42.24;;
43168;Laerm;28773;48.804;9.024;2024-01-11T08:39:10;38.90;37.23;43.55;;
43168;Laerm;28773;48.804;9.024;2024-01-11T08:41:37;39.06;37.75;43.33;;
43168;Laerm;28773;48.804;9.024;2024-01-11T08:44:05;39.45;37.83;43.50;;
43168;Laerm;28773;48.804;9.024;2024-01-11T08:46:31;39.07;37.74;43.68;;
43168;Laerm;28773;48.804;9.024;2024-01-11T08:48:58;39.31;37.75;42.63;;
43168;Laerm;28773;48.804;9.024;2024-01-11T08:51:23;38.96;37.37;43.13;;
43168;Laerm;28773;48.804;9.024;2024-01-11T08:53:48;38.43;37.11;42.12;;
43168;Laerm;28773;48.804;9.024;2024-01-11T08:56:14;38.26;36.56;43.35;;
43168;Laerm;28773;48.804;9.024;2024-01-11T08:58:41;37.98;36.37;43.51;;
43168;Laerm;28773;48.804;9.024;2024-01-11T09:01:06;38.14;36.38;42.72;;
43168;Laerm;28773;48.804;9.024;2024-01-11T09:03:33;37.80;36.45;41.17;;
43168;Laerm;28773;48.804;9.024;2024-01-11T09:05:58;38.10;36.62;42.55;;
43168;Laerm;28773;48.804;9.024;2024-01-11T09:08:24;38.11;36.40;42.45;;
43168;Laerm;28773;48.804;9.024;2024-01-11T09:10:49;38.64;37.09;42.12;;
43168;Laerm;28773;48.804;9.024;2024-01-11T09:13:14;40.02;38.11;43.73;;
43168;Laerm;28773;48.804;9.024;2024-01-11T09:15:40;42.20;40.34;45.07;;
43168;Laerm;28773;48.804;9.024;2024-01-11T09:18:06;42.53;41.62;43.59;;
43168;Laerm;28773;48.804;9.024;2024-01-11T09:20:31;41.91;40.46;44.81;;
43168;Laerm;28773;48.804;9.024;2024-01-11T09:22:56;41.47;40.45;44.58;;
43168;Laerm;28773;48.804;9.024;2024-01-11T09:25:21;41.56;40.36;43.93;;
43168;Laerm;28773;48.804;9.024;2024-01-11T09:27:46;41.66;40.34;43.45;;
43168;Laerm;28773;48.804;9.024;2024-01-11T09:30:12;41.04;39.99;43.42;;
43168;Laerm;28773;48.804;9.024;2024-01-11T09:32:37;40.64;39.36;45.31;;
43168;Laerm;28773;48.804;9.024;2024-01-11T09:35:03;40.20;39.16;43.65;;
43168;Laerm;28773;48.804;9.024;2024-01-11T09:37:29;40.44;39.29;42.96;;
43168;Laerm;28773;48.804;9.024;2024-01-11T09:39:54;40.61;39.56;43.48;;
43168;Laerm;28773;48.804;9.024;2024-01-11T09:42:20;40.76;39.53;44.34;;
43168;Laerm;28773;48.804;9.024;2024-01-11T09:44:45;40.04;38.79;42.40;;
43168;Laerm;28773;48.804;9.024;2024-01-11T09:47:11;40.13;38.75;44.60;;
43168;Laerm;28773;48.804;9.024;2024-01-11T09:49:36;40.24;38.87;43.41;;
43168;Laerm;28773;48.804;9.024;2024-01-11T09:52:03;40.51;39.13;43.71;;
43168;Laerm;28773;48.804;9.024;2024-01-11T09:54:29;40.87;39.47;44.94;;
43168;Laerm;28773;48.804;9.024;2024-01-11T09:56:54;41.12;39.99;43.04;;
43168;Laerm;28773;48.804;9.024;2024-01-11T09:59:22;41.26;40.10;44.26;;
43168;Laerm;28773;48.804;9.024;2024-01-11T10:01:48;40.91;39.83;42.87;;
43168;Laerm;28773;48.804;9.024;2024-01-11T10:04:14;40.61;39.65;42.11;;
43168;Laerm;28773;48.804;9.024;2024-01-11T10:06:40;40.69;39.27;45.96;;
43168;Laerm;28773;48.804;9.024;2024-01-11T10:09:06;40.62;39.53;42.55;;
43168;Laerm;28773;48.804;9.024;2024-01-11T10:11:32;40.81;39.57;43.96;;
43168;Laerm;28773;48.804;9.024;2024-01-11T10:13:59;40.65;39.55;43.54;;
43168;Laerm;28773;48.804;9.024;2024-01-11T10:16:26;40.34;38.90;44.43;;
43168;Laerm;28773;48.804;9.024;2024-01-11T10:18:55;40.02;38.71;43.00;;
43168;Laerm;28773;48.804;9.024;2024-01-11T10:21:21;40.31;39.04;43.31;;
43168;Laerm;28773;48.804;9.024;2024-01-11T10:23:46;40.14;39.12;43.87;;
43168;Laerm;28773;48.804;9.024;2024-01-11T10:26:11;40.29;38.82;44.31;;
43168;Laerm;28773;48.804;9.024;2024-01-11T10:28:37;40.68;39.10;43.89;;
43168;Laerm;28773;48.804;9.024;2024-01-11T10:31:03;41.76;40.28;45.09;;
43168;Laerm;28773;48.804;9.024;2024-01-11T10:33:28;43.07;42.01;44.51;;
43168;Laerm;28773;48.804;9.024;2024-01-11T10:35:53;43.14;42.17;44.58;;
43168;Laerm;28773;48.804;9.024;2024-01-11T10:38:19;43.32;42.17;44.84;;
43168;Laerm;28773;48.804;9.024;2024-01-11T10:40:46;43.82;42.50;45.15;;
43168;Laerm;28773;48.804;9.024;2024-01-11T10:43:11;43.58;42.44;45.46;;
43168;Laerm;28773;48.804;9.024;2024-01-11T10:45:38;43.58;42.43;45.06;;
43168;Laerm;28773;48.804;9.024;2024-01-11T10:48:08;42.94;42.02;44.43;;
43168;Laerm;28773;48.804;9.024;2024-01-11T10:50:37;43.24;42.04;46.09;;
43168;Laerm;28773;48.804;9.024;2024-01-11T10:55:40;45.22;44.09;46.40;;
43168;Laerm;28773;48.804;9.024;2024-01-11T10:58:07;45.43;44.52;47.43;;
43168;Laerm;28773;48.804;9.024;2024-01-11T11:00:32;45.25;44.32;46.23;;
43168;Laerm;28773;48.804;9.024;2024-01-11T11:02:59;44.73;43.78;46.11;;
43168;Laerm;28773;48.804;9.024;2024-01-11T11:05:31;44.63;43.51;46.43;;
43168;Laerm;28773;48.804;9.024;2024-01-11T11:07:57;44.63;43.45;46.19;;
43168;Laerm;28773;48.804;9.024;2024-01-11T11:10:23;45.45;44.27;46.81;;
43168;Laerm;28773;48.804;9.024;2024-01-11T11:12:49;46.23;45.24;47.25;;
43168;Laerm;28773;48.804;9.024;2024-01-11T11:15:14;46.60;45.66;47.72;;
43168;Laerm;28773;48.804;9.024;2024-01-11T11:17:40;47.02;46.00;48.05;;
43168;Laerm;28773;48.804;9.024;2024-01-11T11:20:08;46.73;45.82;49.13;;
43168;Laerm;28773;48.804;9.024;2024-01-11T11:22:36;46.73;45.68;48.01;;
43168;Laerm;28773;48.804;9.024;2024-01-11T11:25:11;46.35;45.52;47.44;;
43168;Laerm;28773;48.804;9.024;2024-01-11T11:27:48;45.97;44.94;47.45;;
43168;Laerm;28773;48.804;9.024;2024-01-11T11:30:13;45.55;44.50;54.37;;
43168;Laerm;28773;48.804;9.024;2024-01-11T11:32:42;45.56;44.52;46.73;;
43168;Laerm;28773;48.804;9.024;2024-01-11T11:35:08;45.39;44.37;47.08;;
43168;Laerm;28773;48.804;9.024;2024-01-11T11:37:33;44.68;43.54;47.03;;
43168;Laerm;28773;48.804;9.024;2024-01-11T11:40:01;44.40;43.23;47.26;;
43168;Laerm;28773;48.804;9.024;2024-01-11T11:42:27;43.76;42.71;45.64;;
43168;Laerm;28773;48.804;9.024;2024-01-11T11:44:55;43.48;42.54;44.80;;
43168;Laerm;28773;48.804;9.024;2024-01-11T11:47:20;43.55;42.53;45.17;;
43168;Laerm;28773;48.804;9.024;2024-01-11T11:52:24;44.16;42.97;45.90;;
43168;Laerm;28773;48.804;9.024;2024-01-11T11:54:50;43.92;42.69;46.39;;
43168;Laerm;28773;48.804;9.024;2024-01-11T11:57:16;43.73;42.79;45.24;;
43168;Laerm;28773;48.804;9.024;2024-01-11T11:59:42;43.37;42.14;45.04;;
43168;Laerm;28773;48.804;9.024;2024-01-11T12:02:07;42.53;41.05;45.79;;
43168;Laerm;28773;48.804;9.024;2024-01-11T12:04:38;42.47;41.08;44.17;;
43168;Laerm;28773;48.804;9.024;2024-01-11T12:07:04;42.29;41.26;44.19;;
43168;Laerm;28773;48.804;9.024;2024-01-11T12:09:29;42.45;41.33;44.42;;
43168;Laerm;28773;48.804;9.024;2024-01-11T12:11:54;42.28;41.17;44.01;;
43168;Laerm;28773;48.804;9.024;2024-01-11T12:14:19;42.65;41.53;45.18;;
43168;Laerm;28773;48.804;9.024;2024-01-11T12:16:45;42.60;41.26;44.43;;
43168;Laerm;28773;48.804;9.024;2024-01-11T12:19:10;43.07;41.60;45.02;;
43168;Laerm;28773;48.804;9.024;2024-01-11T12:21:35;43.40;41.92;45.08;;
43168;Laerm;28773;48.804;9.024;2024-01-11T12:24:00;43.79;42.58;45.39;;
43168;Laerm;28773;48.804;9.024;2024-01-11T12:26:26;43.62;42.42;45.60;;
43168;Laerm;28773;48.804;9.024;2024-01-11T12:28:51;43.16;42.00;44.75;;
43168;Laerm;28773;48.804;9.024;2024-01-11T12:31:16;43.04;41.86;44.84;;
43168;Laerm;28773;48.804;9.024;2024-01-11T12:33:42;42.50;41.12;47.09;;
43168;Laerm;28773;48.804;9.024;2024-01-11T12:36:08;42.81;41.26;46.19;;
43168;Laerm;28773;48.804;9.024;2024-01-11T12:38:34;42.72;41.16;45.15;;
43168;Laerm;28773;48.804;9.024;2024-01-11T12:40:59;42.16;40.76;44.18;;
43168;Laerm;28773;48.804;9.024;2024-01-11T12:43:24;42.45;41.37;44.05;;
43168;Laerm;28773;48.804;9.024;2024-01-11T12:45:50;42.30;41.30;44.03;;
43168;Laerm;28773;48.804;9.024;2024-01-11T12:48:15;42.47;41.32;43.82;;
43168;Laerm;28773;48.804;9.024;2024-01-11T12:50:42;42.32;40.93;44.54;;
43168;Laerm;28773;48.804;9.024;2024-01-11T12:53:08;42.04;40.77;44.23;;
43168;Laerm;28773;48.804;9.024;2024-01-11T12:55:33;41.84;40.44;44.30;;
43168;Laerm;28773;48.804;9.024;2024-01-11T12:58:08;40.69;39.15;43.30;;
43168;Laerm;28773;48.804;9.024;2024-01-11T13:00:36;39.59;38.34;44.51;;
43168;Laerm;28773;48.804;9.024;2024-01-11T13:03:02;39.12;37.35;41.86;;
43168;Laerm;28773;48.804;9.024;2024-01-11T13:05:27;38.63;37.19;44.17;;
43168;Laerm;28773;48.804;9.024;2024-01-11T13:07:53;38.81;37.33;43.12;;
43168;Laerm;28773;48.804;9.024;2024-01-11T13:10:18;38.73;36.99;42.04;;
43168;Laerm;28773;48.804;9.024;2024-01-11T13:12:43;38.32;36.57;43.14;;
43168;Laerm;28773;48.804;9.024;2024-01-11T13:15:08;37.85;36.10;41.85;;
43168;Laerm;28773;48.804;9.024;2024-01-11T13:17:33;38.00;36.37;45.56;;
43168;Laerm;28773;48.804;9.024;2024-01-11T13:19:59;37.44;35.79;41.46;;
43168;Laerm;28773;48.804;9.024;2024-01-11T13:22:25;37.02;35.26;41.09;;
43168;Laerm;28773;48.804;9.024;2024-01-11T13:24:50;36.82;34.62;41.72;;
43168;Laerm;28773;48.804;9.024;2024-01-11T13:27:15;36.61;34.48;41.62;;
43168;Laerm;28773;48.804;9.024;2024-01-11T13:29:40;37.23;34.88;44.81;;
43168;Laerm;28773;48.804;9.024;2024-01-11T13:32:05;36.88;35.10;41.38;;
43168;Laerm;28773;48.804;9.024;2024-01-11T13:34:31;36.24;33.99;44.08;;
43168;Laerm;28773;48.804;9.024;2024-01-11T13:36:56;36.28;33.62;44.73;;
43168;Laerm;28773;48.804;9.024;2024-01-11T13:39:21;35.51;33.41;41.08;;